Terminal Aerodrome Forecast
Issued by NWS

Current Version | Previous Version | Graphics & Text | Print | Product List | Glossary On
Versions: 1 2 3 4 5 6 7 8 9 10 11 12 13 14 15 16
589
FTUS41 KPBZ 151419 AAA
TAFHLG
TAF AMD
KHLG 151419Z 1514/1612 20015G25KT P6SM SCT040
     FM151530 20015G25KT P6SM BKN025
     FM152100 25020G30KT 5SM -SHRA OVC035
     FM152300 29015G25KT P6SM VCSH BKN025
     FM160400 30010KT P6SM BKN025=

USA.gov is the U.S. government's official web portal to all federal, state and local government web resources and services.